Impacts TAF Board
For situational awareness. Not to be used for flight planning purposes.
IDs:

KFLL - Ft Lauderdale-Hollyw, FL, US

Issued at 1507 UTC 03 Dec 2021
Updated at 1658 UTC 03 Dec 2021
Potential Impact None Slight Moderate High
Time1653Z 03/17Z 03/18Z 03/19Z 03/20Z 03/21Z 03/22Z 03/23Z 04/00Z 04/01Z 04/02Z 04/03Z 04/04Z 04/05Z>>
Type OBS PRVL PRVL PRVL PRVL PRVL PRVL PRVL PRVL PRVL PRVL PRVL PRVL PRVL
VIS 10 >6 >6 >6 >6 >6 >6 >6 >6 >6 >6 >6 >6 >6
CIG -- -- -- -- -- -- -- -- -- -- -- -- -- --
Cover FEW SCT SCT SCT SCT SCT SCT SCT FEW FEW FEW FEW FEW FEW
FltCat VFR VFR VFR VFR VFR VFR VFR VFR VFR VFR VFR VFR VFR VFR
WX -- -- -- -- -- -- -- -- -- -- -- -- -- --
WDir 70 40 40 40 40 40 40 40 VRB VRB VRB VRB VRB VRB
WSpd 6 8 8 8 8 8 8 8 3 3 3 3 3 3
WGst -- -- -- -- -- -- -- -- -- -- -- -- -- --
WSHgt -- -- -- -- -- -- -- -- -- -- -- -- -- --
WSDir -- -- -- -- -- -- -- -- -- -- -- -- -- --
WSSpd -- -- -- -- -- -- -- -- -- -- -- -- -- --
Raw TAF
KFLL 031507Z 0315/0418 VRB06KT P6SM FEW025 SCT250
  FM031600 04008KT P6SM FEW100 SCT250
  FM040000 VRB03KT P6SM FEW025
  FM041500 11008KT P6SM FEW030


Raw METAR
KFLL 031653Z 07006KT 10SM FEW025 FEW220 26/14 A3010 RMK AO2 SLP194 T02560144
KFLL 031553Z VRB06KT 10SM FEW023 FEW220 25/10 A3013 RMK AO2 SLP201 T02500100
KFLL 031453Z 36006KT 10SM FEW024 FEW220 23/07 A3013 RMK AO2 SLP201 T02280072 51014
KFLL 031353Z 35007KT 10SM FEW023 FEW200 21/10 A3012 RMK AO2 SLP198 T02060100

METAR Board
Radar Display
Forecast Discussion
For situational awareness. Not to be used for flight planning purposes.